Time;durP1;ratioP1;P1;durP2;ratioP2;P2;SDS_P1;SDS_P2;PMS_P1;PMS_P2;Temp;Humidity;BMP_temperature;BMP_pressure;BME280_temperature;BME280_humidity;BME280_pressure;Samples;Min_cycle;Max_cycle;Signal;HPM_P1;HPM_P2
2023/06/01 00:01:51;;;;;;;9.18;3.22;;;11.50;99.90;;;;;;6180107;23;20009;-57
2023/06/01 00:04:17;;;;;;;9.00;3.00;;;11.50;99.90;;;;;;6179908;23;20012;-56
2023/06/01 00:06:43;;;;;;;8.88;4.13;;;11.50;99.90;;;;;;6180316;23;20012;-59
2023/06/01 00:09:09;;;;;;;7.18;2.90;;;11.60;99.90;;;;;;6176162;23;20031;-58
2023/06/01 00:11:35;;;;;;;10.52;3.97;;;11.60;99.90;;;;;;6180404;23;20008;-57
2023/06/01 00:14:01;;;;;;;9.52;4.20;;;11.60;99.90;;;;;;6179737;23;20017;-55
2023/06/01 00:16:27;;;;;;;9.00;3.97;;;11.60;99.90;;;;;;6180090;23;20028;-55
2023/06/01 00:18:55;;;;;;;6.95;3.35;;;11.60;99.90;;;;;;6180601;23;20025;-55
2023/06/01 00:21:21;;;;;;;10.65;4.18;;;11.60;99.90;;;;;;6180367;23;20013;-59
2023/06/01 00:23:47;;;;;;;8.88;3.80;;;11.60;99.90;;;;;;6153537;23;20005;-55
2023/06/01 00:26:13;;;;;;;8.57;3.25;;;11.60;99.90;;;;;;6153367;23;20001;-56
2023/06/01 00:28:39;;;;;;;9.13;3.28;;;11.60;99.90;;;;;;6180706;23;20012;-55
2023/06/01 00:31:07;;;;;;;6.95;3.25;;;11.60;99.90;;;;;;6179561;23;20013;-58
2023/06/01 00:33:33;;;;;;;6.00;3.03;;;11.60;99.90;;;;;;6180855;23;20016;-54
2023/06/01 00:35:58;;;;;;;7.43;3.20;;;11.50;99.90;;;;;;6179291;23;20005;-54
2023/06/01 00:38:24;;;;;;;6.75;3.50;;;11.50;99.90;;;;;;6180263;23;20085;-58
2023/06/01 00:40:50;;;;;;;8.27;3.55;;;11.50;99.90;;;;;;6180637;23;20610;-57
2023/06/01 00:43:17;;;;;;;11.23;4.15;;;11.50;99.90;;;;;;6153952;23;20070;-56
2023/06/01 00:45:43;;;;;;;11.23;4.13;;;11.50;99.90;;;;;;6179972;23;20433;-58
2023/06/01 00:48:09;;;;;;;7.03;3.55;;;11.60;99.90;;;;;;6180085;23;20055;-56
2023/06/01 00:50:35;;;;;;;9.55;4.22;;;11.60;99.90;;;;;;6180354;23;20005;-56
2023/06/01 00:53:02;;;;;;;6.80;3.70;;;11.50;99.90;;;;;;6179693;23;20467;-61
2023/06/01 00:55:28;;;;;;;6.03;3.20;;;11.50;99.90;;;;;;6179862;23;20028;-56
2023/06/01 00:57:55;;;;;;;10.32;3.80;;;11.40;99.90;;;;;;6178787;23;20433;-56
2023/06/01 01:00:22;;;;;;;11.98;3.80;;;11.40;99.90;;;;;;6175381;23;20056;-58
2023/06/01 01:02:48;;;;;;;11.63;4.30;;;11.30;99.90;;;;;;6176875;23;20005;-57
2023/06/01 01:05:16;;;;;;;8.90;4.32;;;11.30;99.90;;;;;;6178413;23;20076;-54
2023/06/01 01:07:50;;;;;;;9.73;4.25;;;11.30;99.90;;;;;;6180425;23;20021;-56
2023/06/01 01:10:37;;;;;;;11.65;4.57;;;11.30;99.90;;;;;;6180397;23;20008;-57
2023/06/01 01:13:37;;;;;;;8.32;3.88;;;11.30;99.90;;;;;;6179721;23;20001;-54
2023/06/01 01:16:52;;;;;;;6.57;3.85;;;11.40;99.90;;;;;;6153301;23;20005;-57
2023/06/01 01:19:56;;;;;;;7.60;3.60;;;11.40;99.90;;;;;;6154761;23;20698;-57
2023/06/01 01:22:40;;;;;;;7.95;4.28;;;11.40;99.90;;;;;;6153131;23;20491;-59
2023/06/01 01:25:12;;;;;;;8.95;4.65;;;11.30;99.90;;;;;;6179878;23;20094;-60
2023/06/01 01:28:00;;;;;;;6.50;4.32;;;11.30;99.90;;;;;;6180090;23;20005;-55
2023/06/01 01:30:28;;;;;;;9.95;4.28;;;11.30;99.90;;;;;;6179487;23;20461;-55
2023/06/01 01:32:55;;;;;;;8.05;4.03;;;11.30;99.90;;;;;;6180076;23;20456;-54
2023/06/01 01:35:23;;;;;;;9.20;4.28;;;11.30;99.90;;;;;;6152148;23;20109;-59
2023/06/01 01:37:53;;;;;;;5.43;4.28;;;11.20;99.90;;;;;;6155473;23;20003;-56
2023/06/01 01:40:19;;;;;;;8.98;3.90;;;11.20;99.90;;;;;;6182205;23;20314;-56
2023/06/01 01:42:45;;;;;;;9.40;4.13;;;11.20;99.90;;;;;;6182950;23;20001;-59
2023/06/01 01:45:11;;;;;;;10.50;5.05;;;11.20;99.90;;;;;;6181552;23;20005;-56
2023/06/01 01:47:48;;;;;;;12.98;4.57;;;11.20;99.90;;;;;;6182004;23;20594;-59
2023/06/01 01:50:18;;;;;;;9.30;4.20;;;11.20;99.90;;;;;;6181703;23;20012;-57
2023/06/01 01:52:44;;;;;;;11.48;4.72;;;11.20;99.90;;;;;;6181535;23;20076;-59
2023/06/01 01:55:11;;;;;;;5.97;3.63;;;11.20;99.90;;;;;;6182015;23;20001;-57
2023/06/01 01:57:37;;;;;;;10.95;4.93;;;11.20;99.90;;;;;;6181978;23;20005;-63
2023/06/01 02:00:06;;;;;;;12.63;3.92;;;11.20;99.90;;;;;;6180878;23;20005;-58
2023/06/01 02:02:31;;;;;;;7.28;4.22;;;11.10;99.90;;;;;;6181969;23;20073;-56
2023/06/01 02:04:57;;;;;;;8.32;4.18;;;11.10;99.90;;;;;;6181658;23;20017;-58
2023/06/01 02:07:22;;;;;;;8.95;4.47;;;11.10;99.90;;;;;;6181635;23;20086;-58
2023/06/01 02:09:48;;;;;;;11.13;4.55;;;11.20;99.90;;;;;;6155069;23;20079;-55
2023/06/01 02:12:14;;;;;;;10.25;4.88;;;11.20;99.90;;;;;;6182139;23;20005;-62
2023/06/01 02:14:39;;;;;;;10.35;4.05;;;11.20;99.90;;;;;;6181273;23;20016;-59
2023/06/01 02:17:05;;;;;;;12.38;4.25;;;11.10;99.90;;;;;;6181553;23;20012;-57
2023/06/01 02:19:31;;;;;;;9.52;4.38;;;11.10;99.90;;;;;;6182504;23;20032;-58
2023/06/01 02:21:57;;;;;;;14.52;5.03;;;11.10;99.90;;;;;;6181512;23;20012;-54
2023/06/01 02:24:22;;;;;;;9.98;4.53;;;11.10;99.90;;;;;;6181525;23;20016;-57
2023/06/01 02:26:51;;;;;;;11.68;4.80;;;11.10;99.90;;;;;;6181573;23;20147;-62
2023/06/01 02:29:19;;;;;;;14.32;5.40;;;11.10;99.90;;;;;;6181489;23;20005;-54
2023/06/01 02:31:45;;;;;;;8.70;4.30;;;11.10;99.90;;;;;;6181111;23;20024;-59
2023/06/01 02:34:11;;;;;;;9.55;4.65;;;11.10;99.90;;;;;;6180204;23;20333;-53
2023/06/01 02:36:36;;;;;;;12.63;5.50;;;11.10;99.90;;;;;;6155128;23;20044;-60
2023/06/01 02:39:02;;;;;;;8.07;4.32;;;11.10;99.90;;;;;;6181112;23;20113;-57
2023/06/01 02:41:28;;;;;;;11.90;4.63;;;11.10;99.90;;;;;;6181746;23;20073;-58
2023/06/01 02:43:53;;;;;;;9.27;4.70;;;11.10;99.90;;;;;;6181071;23;20001;-59
2023/06/01 02:46:19;;;;;;;10.65;4.93;;;11.10;99.90;;;;;;6181674;23;20068;-59
2023/06/01 02:48:45;;;;;;;8.05;4.80;;;11.10;99.90;;;;;;6180666;23;20076;-57
2023/06/01 02:51:11;;;;;;;8.93;4.45;;;11.10;99.90;;;;;;6181467;23;20386;-59
2023/06/01 02:53:39;;;;;;;13.30;3.92;;;11.10;99.90;;;;;;6181741;23;20433;-58
2023/06/01 02:56:05;;;;;;;14.80;5.22;;;11.10;99.90;;;;;;6181024;23;20337;-58
2023/06/01 02:58:31;;;;;;;11.13;5.60;;;11.10;99.90;;;;;;6181337;23;20092;-56
2023/06/01 03:00:59;;;;;;;9.93;4.40;;;11.10;99.90;;;;;;6180635;23;20009;-59
2023/06/01 03:03:25;;;;;;;10.02;4.22;;;11.20;99.90;;;;;;6181046;23;20009;-55
2023/06/01 03:05:51;;;;;;;10.35;4.70;;;11.20;99.90;;;;;;6154445;23;20047;-56
2023/06/01 03:08:17;;;;;;;9.70;5.07;;;11.20;99.90;;;;;;6180370;23;20005;-56
2023/06/01 03:10:43;;;;;;;9.90;5.22;;;11.20;99.90;;;;;;6180877;23;20044;-58
2023/06/01 03:13:09;;;;;;;12.30;6.00;;;11.20;99.90;;;;;;6180325;23;20005;-55
2023/06/01 03:15:34;;;;;;;10.25;4.72;;;11.20;99.90;;;;;;6153008;23;20344;-59
2023/06/01 03:18:01;;;;;;;11.88;4.80;;;11.20;99.90;;;;;;6180261;23;20523;-57
2023/06/01 03:20:26;;;;;;;12.07;4.95;;;11.20;99.90;;;;;;6179838;23;20032;-56
2023/06/01 03:22:52;;;;;;;10.95;5.18;;;11.20;99.90;;;;;;6180225;23;20346;-56
2023/06/01 03:25:18;;;;;;;12.65;5.28;;;11.20;99.90;;;;;;6179299;23;20048;-53
2023/06/01 03:27:43;;;;;;;13.98;4.30;;;11.20;99.90;;;;;;6180377;23;20001;-57
2023/06/01 03:30:10;;;;;;;8.43;4.38;;;11.10;99.90;;;;;;6178940;23;19997;-59
2023/06/01 03:32:37;;;;;;;11.93;5.50;;;11.10;99.90;;;;;;6154067;23;19997;-53
2023/06/01 03:35:04;;;;;;;7.03;4.47;;;11.10;99.90;;;;;;6178879;23;20005;-58
2023/06/01 03:37:29;;;;;;;9.00;4.25;;;11.10;99.90;;;;;;6179772;23;20008;-59
2023/06/01 03:39:55;;;;;;;7.28;4.95;;;11.10;99.90;;;;;;6180140;23;20068;-57
2023/06/01 03:42:20;;;;;;;12.52;5.63;;;11.10;99.90;;;;;;6179490;23;20009;-56
2023/06/01 03:44:46;;;;;;;10.30;4.25;;;11.10;99.90;;;;;;6179661;23;20008;-59
2023/06/01 03:47:13;;;;;;;8.43;4.35;;;11.20;99.90;;;;;;6178904;23;20342;-60
2023/06/01 03:49:39;;;;;;;8.15;4.97;;;11.10;99.90;;;;;;6153146;23;20406;-58
2023/06/01 03:52:05;;;;;;;10.55;4.43;;;11.20;99.90;;;;;;6179210;23;20128;-58
2023/06/01 03:54:31;;;;;;;8.52;4.68;;;11.20;99.90;;;;;;6179036;23;20052;-60
2023/06/01 03:56:57;;;;;;;14.02;4.93;;;11.20;99.90;;;;;;6179689;23;20012;-59
2023/06/01 03:59:22;;;;;;;11.40;5.60;;;11.20;99.90;;;;;;6178336;23;20004;-52
2023/06/01 04:01:49;;;;;;;8.82;5.30;;;11.20;99.90;;;;;;6179397;23;20039;-55
2023/06/01 04:04:16;;;;;;;11.55;4.80;;;11.20;99.90;;;;;;6179121;23;20079;-54
2023/06/01 04:06:44;;;;;;;6.53;4.28;;;11.20;99.90;;;;;;6179582;23;20005;-58
2023/06/01 04:09:11;;;;;;;12.18;5.03;;;11.20;99.90;;;;;;6179004;23;20051;-56
2023/06/01 04:11:38;;;;;;;11.40;5.45;;;11.20;99.90;;;;;;6153333;23;20001;-55
2023/06/01 04:14:04;;;;;;;13.48;5.65;;;11.20;99.90;;;;;;6178971;23;20036;-54
2023/06/01 04:16:30;;;;;;;7.55;5.00;;;11.30;99.90;;;;;;6179551;23;20431;-58
2023/06/01 04:18:56;;;;;;;10.27;5.28;;;11.30;99.90;;;;;;6179741;23;20004;-56
2023/06/01 04:21:22;;;;;;;10.82;5.97;;;11.30;99.90;;;;;;6152720;23;20005;-59
2023/06/01 04:23:48;;;;;;;10.73;4.93;;;11.30;99.90;;;;;;6179083;23;20009;-60
2023/06/01 04:26:14;;;;;;;9.65;5.60;;;11.30;99.90;;;;;;6152827;23;20013;-58
2023/06/01 04:28:43;;;;;;;10.98;5.55;;;11.30;99.90;;;;;;6178746;23;20005;-55
2023/06/01 04:31:16;;;;;;;13.13;5.80;;;11.30;99.90;;;;;;6151914;23;20067;-55
2023/06/01 04:33:44;;;;;;;15.95;6.72;;;11.30;99.90;;;;;;6179177;23;20005;-57
2023/06/01 04:36:13;;;;;;;9.25;5.95;;;11.30;99.90;;;;;;6152488;23;20377;-54
2023/06/01 04:38:42;;;;;;;16.20;6.15;;;11.30;99.90;;;;;;6178963;23;20028;-59
2023/06/01 04:41:10;;;;;;;11.45;5.05;;;11.40;99.90;;;;;;6152832;23;20028;-56
2023/06/01 04:43:39;;;;;;;8.77;5.30;;;11.40;99.90;;;;;;6152836;23;20012;-57
2023/06/01 04:46:05;;;;;;;10.52;5.45;;;11.40;99.90;;;;;;6178613;23;20001;-53
2023/06/01 04:48:31;;;;;;;9.50;4.28;;;11.40;99.90;;;;;;6179264;23;20076;-58
2023/06/01 04:50:58;;;;;;;11.63;5.18;;;11.40;99.90;;;;;;6178278;23;20005;-64
2023/06/01 04:53:24;;;;;;;16.45;5.82;;;11.40;99.90;;;;;;6179090;23;20037;-57
2023/06/01 04:55:50;;;;;;;14.52;5.63;;;11.40;99.90;;;;;;6179268;23;20013;-58
2023/06/01 04:58:16;;;;;;;15.18;6.30;;;11.30;99.90;;;;;;6178582;23;20016;-57
2023/06/01 05:00:41;;;;;;;10.52;6.05;;;11.30;99.90;;;;;;6177789;23;20735;-58
2023/06/01 05:03:07;;;;;;;11.60;6.82;;;11.30;99.90;;;;;;6152369;23;20080;-56
2023/06/01 05:05:33;;;;;;;7.78;6.60;;;11.30;99.90;;;;;;6152193;23;20005;-54
2023/06/01 05:07:59;;;;;;;14.57;6.25;;;11.40;99.90;;;;;;6178808;23;20115;-57
2023/06/01 05:10:24;;;;;;;15.88;7.15;;;11.30;99.90;;;;;;6179431;23;20009;-57
2023/06/01 05:12:50;;;;;;;11.55;7.45;;;11.40;99.90;;;;;;6152618;23;20001;-60
2023/06/01 05:15:16;;;;;;;17.52;7.47;;;11.40;99.90;;;;;;6177243;23;20008;-57
2023/06/01 05:17:42;;;;;;;11.35;6.55;;;11.40;99.90;;;;;;6178686;23;20005;-59
2023/06/01 05:20:09;;;;;;;10.85;6.53;;;11.40;99.90;;;;;;6178656;23;20472;-54
2023/06/01 05:22:35;;;;;;;9.25;6.57;;;11.50;99.90;;;;;;6179123;23;20468;-59
2023/06/01 05:25:02;;;;;;;11.20;6.22;;;11.50;99.90;;;;;;6178561;23;20365;-59
2023/06/01 05:27:28;;;;;;;10.52;6.00;;;11.60;99.90;;;;;;6179188;23;20028;-56
2023/06/01 05:29:54;;;;;;;12.65;6.75;;;11.60;99.90;;;;;;6151874;23;20392;-57
2023/06/01 05:32:20;;;;;;;12.50;6.18;;;11.60;99.90;;;;;;6151517;23;20013;-57
2023/06/01 05:34:46;;;;;;;8.20;5.70;;;11.70;99.90;;;;;;6179123;23;20393;-61
2023/06/01 05:37:12;;;;;;;13.02;6.25;;;11.70;99.90;;;;;;6179186;23;20345;-57
2023/06/01 05:39:37;;;;;;;11.30;6.13;;;11.60;99.90;;;;;;6179184;23;20016;-58
2023/06/01 05:42:03;;;;;;;12.63;6.53;;;11.60;99.90;;;;;;6179003;23;20473;-57
2023/06/01 05:44:31;;;;;;;9.07;5.75;;;11.60;99.90;;;;;;6178585;23;20005;-57
2023/06/01 05:46:57;;;;;;;15.32;6.95;;;11.60;99.90;;;;;;6179633;23;20016;-58
2023/06/01 05:49:22;;;;;;;12.80;6.75;;;11.60;99.90;;;;;;6152662;23;20080;-59
2023/06/01 05:51:48;;;;;;;9.55;5.97;;;11.70;99.90;;;;;;6179277;23;20016;-56
2023/06/01 05:54:14;;;;;;;10.98;5.80;;;11.60;99.90;;;;;;6151785;23;20005;-55
2023/06/01 05:56:40;;;;;;;10.70;5.57;;;11.70;99.90;;;;;;6178943;23;20056;-57
2023/06/01 05:59:06;;;;;;;12.40;5.50;;;11.70;99.90;;;;;;6179188;23;20461;-56
2023/06/01 06:01:32;;;;;;;11.57;6.38;;;11.70;99.90;;;;;;6152061;23;20031;-58
2023/06/01 06:03:58;;;;;;;10.18;5.72;;;11.70;99.90;;;;;;6179081;23;20358;-55
2023/06/01 06:06:25;;;;;;;10.07;6.10;;;11.80;99.90;;;;;;6178622;23;20013;-56
2023/06/01 06:08:51;;;;;;;14.38;6.38;;;11.80;99.90;;;;;;6179285;23;20016;-60
2023/06/01 06:11:17;;;;;;;8.18;4.90;;;11.70;99.90;;;;;;6178967;23;20009;-60
2023/06/01 06:13:43;;;;;;;14.30;6.53;;;11.80;99.90;;;;;;6179153;23;20095;-57
2023/06/01 06:16:08;;;;;;;9.43;6.00;;;11.80;99.90;;;;;;6152290;23;20023;-60
2023/06/01 06:18:34;;;;;;;10.05;4.97;;;11.80;99.90;;;;;;6178762;23;20012;-60
2023/06/01 06:21:00;;;;;;;9.45;5.28;;;11.80;99.90;;;;;;6179469;23;20024;-58
2023/06/01 06:23:27;;;;;;;8.57;5.72;;;11.90;99.90;;;;;;6180326;23;20613;-55
2023/06/01 06:25:52;;;;;;;9.27;5.28;;;11.90;99.90;;;;;;6180502;23;20080;-56
2023/06/01 06:28:18;;;;;;;15.23;5.82;;;11.90;99.90;;;;;;6180711;23;20140;-68
2023/06/01 06:30:44;;;;;;;13.85;6.47;;;12.00;99.90;;;;;;6180008;23;20017;-54
2023/06/01 06:33:09;;;;;;;11.45;6.30;;;11.90;99.90;;;;;;6180963;23;20012;-57
2023/06/01 06:35:35;;;;;;;8.27;5.68;;;11.90;99.90;;;;;;6180028;23;20005;-55
2023/06/01 06:38:01;;;;;;;12.90;6.78;;;11.90;99.90;;;;;;6180945;23;20005;-58
2023/06/01 06:40:26;;;;;;;15.48;6.80;;;12.00;99.90;;;;;;6180082;23;20001;-55
2023/06/01 06:42:52;;;;;;;12.80;4.07;;;12.10;99.90;;;;;;6180857;23;20001;-55
2023/06/01 06:45:18;;;;;;;7.18;4.07;;;12.10;99.90;;;;;;6180591;23;20013;-56
2023/06/01 06:47:45;;;;;;;9.93;4.15;;;12.10;99.90;;;;;;6180229;23;20016;-58
2023/06/01 06:50:11;;;;;;;9.82;3.53;;;12.10;99.90;;;;;;6180606;23;20222;-59
2023/06/01 06:52:37;;;;;;;12.40;3.45;;;12.20;99.90;;;;;;6180782;23;20005;-58
2023/06/01 06:55:03;;;;;;;10.23;3.90;;;12.10;99.90;;;;;;6180219;23;20016;-57
2023/06/01 06:57:28;;;;;;;9.55;3.97;;;12.20;99.90;;;;;;6153771;23;20013;-56
2023/06/01 06:59:54;;;;;;;4.70;2.95;;;12.20;99.90;;;;;;6181258;23;20025;-60
2023/06/01 07:02:20;;;;;;;7.20;3.00;;;12.20;99.90;;;;;;6179773;23;20523;-59
2023/06/01 07:04:45;;;;;;;7.38;4.18;;;12.20;99.90;;;;;;6180326;23;20005;-57
2023/06/01 07:07:11;;;;;;;3.58;2.85;;;12.30;99.90;;;;;;6154377;23;20201;-58
2023/06/01 07:09:36;;;;;;;8.18;2.70;;;12.30;99.90;;;;;;6180538;23;20344;-57
2023/06/01 07:12:02;;;;;;;6.85;3.00;;;12.40;99.90;;;;;;6180715;23;20081;-57
2023/06/01 07:14:28;;;;;;;9.70;3.97;;;12.40;99.90;;;;;;6180261;23;20008;-59
2023/06/01 07:16:53;;;;;;;6.97;3.17;;;12.40;99.90;;;;;;6180357;23;20433;-58
2023/06/01 07:19:19;;;;;;;9.27;3.60;;;12.40;99.90;;;;;;6180374;23;20108;-59
2023/06/01 07:21:45;;;;;;;10.02;3.95;;;12.40;99.90;;;;;;6154472;23;20055;-55
2023/06/01 07:24:10;;;;;;;8.55;4.05;;;12.40;99.90;;;;;;6153885;23;20413;-57
2023/06/01 07:26:36;;;;;;;9.18;3.45;;;12.30;99.90;;;;;;6180180;23;20033;-59
2023/06/01 07:29:03;;;;;;;6.95;3.85;;;12.40;99.90;;;;;;6180250;23;20055;-58
2023/06/01 07:31:28;;;;;;;4.60;3.03;;;12.40;99.90;;;;;;6178988;23;20017;-54
2023/06/01 07:33:57;;;;;;;10.50;2.33;;;12.50;99.90;;;;;;6179808;23;20065;-59
2023/06/01 07:36:26;;;;;;;9.13;2.78;;;12.50;99.90;;;;;;6180579;23;20008;-59
2023/06/01 07:38:51;;;;;;;9.02;2.50;;;12.50;99.90;;;;;;6179690;23;20021;-54
2023/06/01 07:41:17;;;;;;;8.52;2.58;;;12.50;99.90;;;;;;6179537;23;20020;-59
2023/06/01 07:43:43;;;;;;;8.30;2.40;;;12.50;99.90;;;;;;6179935;23;20424;-60
2023/06/01 07:46:08;;;;;;;5.93;2.75;;;12.60;99.90;;;;;;6180137;23;19997;-56
2023/06/01 07:48:37;;;;;;;5.63;2.60;;;12.70;99.90;;;;;;6153314;23;20012;-59
2023/06/01 07:51:03;;;;;;;8.88;2.80;;;12.80;99.90;;;;;;6153648;23;20437;-59
2023/06/01 07:53:31;;;;;;;7.43;2.78;;;12.80;99.90;;;;;;6179350;23;20011;-57
2023/06/01 07:55:56;;;;;;;7.55;3.15;;;12.80;99.90;;;;;;6178916;23;19997;-59
2023/06/01 07:58:22;;;;;;;6.95;2.55;;;12.80;99.90;;;;;;6179708;23;20020;-58
2023/06/01 08:00:48;;;;;;;6.32;2.45;;;13.00;99.90;;;;;;6178895;23;20348;-57
2023/06/01 08:03:14;;;;;;;6.05;2.58;;;13.20;99.90;;;;;;6153654;23;20001;-57
2023/06/01 08:05:41;;;;;;;7.47;2.30;;;13.20;99.90;;;;;;6179901;23;20005;-60
2023/06/01 08:08:07;;;;;;;11.93;2.72;;;13.20;99.90;;;;;;6180308;23;20452;-55
2023/06/01 08:10:33;;;;;;;4.80;2.38;;;13.30;99.90;;;;;;6179567;23;20194;-58
2023/06/01 08:12:58;;;;;;;8.48;2.65;;;13.30;99.90;;;;;;6153567;23;20009;-61
2023/06/01 08:15:25;;;;;;;8.32;2.88;;;13.40;99.90;;;;;;6179361;23;20009;-59
2023/06/01 08:17:51;;;;;;;16.85;2.40;;;13.60;99.90;;;;;;6179824;23;20071;-57
2023/06/01 08:20:21;;;;;;;6.45;2.20;;;13.70;99.90;;;;;;6179999;23;20036;-56
2023/06/01 08:22:48;;;;;;;8.43;2.95;;;13.70;99.90;;;;;;6179780;23;20005;-58
2023/06/01 08:25:14;;;;;;;8.18;3.28;;;13.70;99.90;;;;;;6179066;23;20500;-54
2023/06/01 08:27:40;;;;;;;7.53;2.42;;;13.70;99.90;;;;;;6153263;23;20686;-60
2023/06/01 08:30:07;;;;;;;6.13;2.88;;;13.70;99.90;;;;;;6179162;23;20005;-59
2023/06/01 08:32:32;;;;;;;6.70;2.75;;;13.80;99.90;;;;;;6152726;23;20080;-61
2023/06/01 08:34:58;;;;;;;7.85;2.70;;;13.90;99.90;;;;;;6178195;23;20039;-60
2023/06/01 08:37:24;;;;;;;11.93;2.67;;;14.00;99.90;;;;;;6176819;23;20453;-59
2023/06/01 08:39:50;;;;;;;8.80;2.95;;;14.10;99.90;;;;;;6124694;23;20016;-60
2023/06/01 08:42:36;;;;;;;8.15;2.55;;;14.20;99.90;;;;;;6176654;23;20039;-61
2023/06/01 08:45:05;;;;;;;7.45;2.00;;;14.20;99.90;;;;;;6114229;23;20084;-58
2023/06/01 08:47:32;;;;;;;9.75;2.53;;;14.20;99.90;;;;;;6176021;23;20362;-60
2023/06/01 08:49:59;;;;;;;7.72;3.15;;;14.30;99.90;;;;;;6176128;23;20009;-61
2023/06/01 08:52:31;;;;;;;5.90;2.45;;;14.40;99.90;;;;;;6174846;23;20002;-60
2023/06/01 08:55:02;;;;;;;5.85;3.05;;;14.50;99.90;;;;;;6175808;23;20240;-57
2023/06/01 08:57:31;;;;;;;5.13;2.05;;;14.60;99.90;;;;;;6175930;23;20396;-66
2023/06/01 08:59:58;;;;;;;8.55;2.35;;;14.60;99.90;;;;;;6149373;23;20009;-60
2023/06/01 09:02:25;;;;;;;5.13;2.60;;;14.60;99.90;;;;;;6175606;23;20016;-60
2023/06/01 09:04:52;;;;;;;4.60;2.33;;;14.60;99.90;;;;;;6176097;23;20016;-56
2023/06/01 09:07:18;;;;;;;13.63;3.35;;;14.60;99.90;;;;;;6175935;23;20682;-61
2023/06/01 09:09:44;;;;;;;9.10;2.75;;;14.40;99.90;;;;;;6176018;23;20445;-59
2023/06/01 09:12:29;;;;;;;9.82;2.78;;;14.40;99.90;;;;;;6149176;23;20020;-59
2023/06/01 09:15:11;;;;;;;7.47;3.10;;;14.40;99.90;;;;;;6174676;23;20000;-59
2023/06/01 09:17:37;;;;;;;4.70;1.90;;;14.50;99.90;;;;;;6175928;23;20251;-54
2023/06/01 09:20:04;;;;;;;9.55;2.70;;;14.80;99.90;;;;;;6175989;23;20047;-61
2023/06/01 09:22:46;;;;;;;10.75;3.13;;;14.80;99.90;;;;;;6176251;23;20036;-59
2023/06/01 09:25:13;;;;;;;12.07;2.40;;;14.90;99.90;;;;;;6148176;23;20111;-58
2023/06/01 09:27:50;;;;;;;6.85;2.25;;;15.10;99.90;;;;;;6175901;23;20020;-59
2023/06/01 09:30:18;;;;;;;10.65;2.88;;;15.00;99.90;;;;;;6175033;23;20500;-59
2023/06/01 09:32:47;;;;;;;7.93;2.85;;;15.00;99.90;;;;;;6175591;23;20005;-58
2023/06/01 09:35:13;;;;;;;10.82;2.97;;;15.10;99.90;;;;;;6148989;23;20032;-58
2023/06/01 09:37:53;;;;;;;6.43;3.13;;;15.30;99.90;;;;;;6175806;23;20062;-55
2023/06/01 09:40:19;;;;;;;9.85;2.67;;;15.40;99.90;;;;;;6176092;23;20010;-60
2023/06/01 09:42:49;;;;;;;9.27;2.90;;;15.40;99.90;;;;;;6175325;23;20072;-65
2023/06/01 09:45:22;;;;;;;12.43;2.53;;;15.50;99.90;;;;;;6175335;23;20012;-59
2023/06/01 09:47:48;;;;;;;9.05;3.13;;;15.40;99.90;;;;;;6148872;23;20013;-63
2023/06/01 09:50:37;;;;;;;6.95;2.75;;;15.40;99.90;;;;;;6176583;23;20342;-64
2023/06/01 09:53:04;;;;;;;9.65;2.63;;;15.30;99.90;;;;;;6175600;23;20083;-63
2023/06/01 09:55:30;;;;;;;9.88;2.72;;;15.40;99.90;;;;;;6175970;23;20086;-63
2023/06/01 09:58:18;;;;;;;8.63;2.72;;;15.40;99.90;;;;;;6176151;23;20005;-60
2023/06/01 10:00:46;;;;;;;10.23;2.95;;;15.30;99.90;;;;;;6176987;23;20013;-58
2023/06/01 10:03:13;;;;;;;8.05;1.98;;;15.30;99.90;;;;;;6176008;23;20214;-60
2023/06/01 10:05:39;;;;;;;9.20;2.45;;;15.50;99.90;;;;;;6176035;23;20476;-58
2023/06/01 10:08:05;;;;;;;4.78;2.15;;;15.70;99.90;;;;;;6176993;23;20032;-59
2023/06/01 10:10:32;;;;;;;6.97;2.42;;;15.90;99.90;;;;;;6177275;23;20009;-59
2023/06/01 10:12:58;;;;;;;7.68;2.67;;;16.00;99.90;;;;;;6176732;23;20219;-58
2023/06/01 10:15:24;;;;;;;7.78;2.15;;;15.90;99.90;;;;;;6149120;23;20591;-59
2023/06/01 10:17:50;;;;;;;3.80;2.30;;;16.00;99.90;;;;;;6177162;23;20004;-58
2023/06/01 10:20:16;;;;;;;5.60;2.13;;;15.90;99.90;;;;;;6177186;23;20005;-59
2023/06/01 10:22:42;;;;;;;10.95;2.95;;;16.00;99.90;;;;;;6177065;23;20005;-60
2023/06/01 10:25:11;;;;;;;4.60;2.22;;;16.10;99.90;;;;;;6176977;23;20013;-56
2023/06/01 10:27:45;;;;;;;7.60;2.15;;;16.00;99.90;;;;;;6149929;23;20032;-58
2023/06/01 10:30:11;;;;;;;11.15;2.65;;;16.00;99.90;;;;;;6176553;23;20005;-59
2023/06/01 10:32:36;;;;;;;5.90;2.72;;;16.10;99.90;;;;;;6176600;23;20009;-58
2023/06/01 10:35:03;;;;;;;3.70;1.98;;;16.20;99.90;;;;;;6176513;23;20045;-60
2023/06/01 10:37:29;;;;;;;8.07;2.63;;;16.00;99.90;;;;;;6175565;23;20028;-60
2023/06/01 10:40:15;;;;;;;11.27;3.03;;;16.10;99.90;;;;;;6177205;23;20393;-58
2023/06/01 10:42:41;;;;;;;9.52;2.85;;;16.20;99.90;;;;;;6176043;23;20087;-58
2023/06/01 10:45:07;;;;;;;5.30;2.40;;;16.20;99.90;;;;;;6176961;23;20005;-60
2023/06/01 10:47:33;;;;;;;7.82;2.25;;;16.30;99.90;;;;;;6176791;23;20013;-55
2023/06/01 10:49:58;;;;;;;6.70;2.35;;;16.40;99.90;;;;;;6176835;23;20426;-59
2023/06/01 10:52:28;;;;;;;9.60;2.55;;;16.30;99.90;;;;;;6176795;23;20088;-59
2023/06/01 10:55:16;;;;;;;6.35;2.03;;;16.30;99.90;;;;;;6150119;23;20009;-58
2023/06/01 10:57:46;;;;;;;6.20;2.30;;;16.30;99.90;;;;;;6176565;23;20009;-58
2023/06/01 11:00:20;;;;;;;6.38;2.33;;;16.20;99.90;;;;;;6175383;23;20458;-57
2023/06/01 11:02:52;;;;;;;9.25;2.72;;;16.20;99.90;;;;;;6176915;23;20093;-58
2023/06/01 11:05:43;;;;;;;8.93;2.88;;;16.30;99.90;;;;;;6176071;23;20131;-60
2023/06/01 11:08:17;;;;;;;10.90;2.83;;;16.30;99.90;;;;;;6176571;23;20009;-59
2023/06/01 11:10:58;;;;;;;11.80;3.50;;;16.30;99.90;;;;;;6176596;23;20433;-58
2023/06/01 11:13:33;;;;;;;10.35;2.75;;;16.30;99.90;;;;;;6176519;23;20001;-57
2023/06/01 11:16:09;;;;;;;9.53;2.07;;;16.10;99.90;;;;;;6175584;23;20033;-61
2023/06/01 11:18:43;;;;;;;8.38;2.28;;;15.90;99.90;;;;;;6176518;23;20223;-58
2023/06/01 11:21:16;;;;;;;8.70;2.00;;;15.90;99.90;;;;;;6176108;23;20001;-62
2023/06/01 11:23:42;;;;;;;5.72;2.10;;;15.90;99.90;;;;;;6176143;23;20036;-59
2023/06/01 11:26:08;;;;;;;5.05;1.95;;;15.80;99.90;;;;;;6176294;23;20005;-58
2023/06/01 11:28:35;;;;;;;6.60;2.00;;;15.80;99.90;;;;;;6176244;23;20104;-60
2023/06/01 11:31:02;;;;;;;8.48;2.70;;;16.00;99.90;;;;;;6175946;23;20504;-59
2023/06/01 11:33:29;;;;;;;8.80;2.80;;;16.00;99.90;;;;;;6175407;23;20380;-58
2023/06/01 11:35:59;;;;;;;4.88;1.80;;;16.20;99.90;;;;;;6175327;23;20447;-58
2023/06/01 11:38:39;;;;;;;7.55;1.98;;;16.20;99.90;;;;;;6147190;23;20041;-61
2023/06/01 11:41:06;;;;;;;8.02;2.70;;;16.20;99.90;;;;;;6176473;23;20001;-58
2023/06/01 11:43:32;;;;;;;11.18;4.22;;;16.20;99.90;;;;;;6149514;23;20045;-58
2023/06/01 11:46:16;;;;;;;8.95;2.97;;;16.20;99.90;;;;;;6149576;23;20009;-59
2023/06/01 11:48:42;;;;;;;7.28;2.83;;;16.20;99.90;;;;;;6176315;23;20013;-59
2023/06/01 11:51:07;;;;;;;5.60;2.15;;;16.20;99.90;;;;;;6175987;23;20023;-59
2023/06/01 11:53:33;;;;;;;8.63;2.35;;;16.20;99.90;;;;;;6174911;23;20040;-59
2023/06/01 11:55:59;;;;;;;7.90;2.22;;;16.20;99.90;;;;;;6176062;23;20337;-59
2023/06/01 11:58:26;;;;;;;10.00;2.17;;;16.20;99.90;;;;;;6176034;23;20013;-55
2023/06/01 12:00:53;;;;;;;8.02;2.08;;;16.30;99.90;;;;;;6148385;23;20060;-58
2023/06/01 12:03:19;;;;;;;7.13;1.85;;;16.50;99.90;;;;;;6175934;23;20008;-56
2023/06/01 12:05:49;;;;;;;9.13;1.90;;;16.60;99.90;;;;;;6175147;23;20002;-57
2023/06/01 12:08:18;;;;;;;10.73;2.70;;;16.70;99.90;;;;;;6176411;23;20005;-59
2023/06/01 12:10:46;;;;;;;10.98;2.20;;;16.60;99.90;;;;;;6176111;23;20012;-61
2023/06/01 12:13:12;;;;;;;3.78;1.15;;;16.60;99.90;;;;;;6175977;23;20005;-62
2023/06/01 12:15:38;;;;;;;6.75;1.77;;;16.60;99.90;;;;;;6175524;23;20310;-56
2023/06/01 12:18:05;;;;;;;6.65;1.75;;;16.70;99.90;;;;;;6175619;23;19997;-55
2023/06/01 12:20:36;;;;;;;9.50;2.08;;;16.80;99.90;;;;;;6175691;23;20012;-56
2023/06/01 12:23:15;;;;;;;9.45;2.30;;;16.90;99.90;;;;;;6175578;23;20001;-56
2023/06/01 12:26:00;;;;;;;4.13;1.50;;;17.00;99.90;;;;;;6175829;23;20016;-60
2023/06/01 12:28:29;;;;;;;4.72;1.75;;;17.00;99.90;;;;;;6175646;23;20001;-58
2023/06/01 12:31:15;;;;;;;8.75;1.77;;;16.80;99.90;;;;;;6175043;23;20008;-61
2023/06/01 12:33:43;;;;;;;7.90;2.10;;;17.00;99.90;;;;;;6175260;23;20080;-62
2023/06/01 12:36:09;;;;;;;5.55;1.73;;;17.20;99.90;;;;;;6146901;23;20101;-58
2023/06/01 12:38:50;;;;;;;11.45;2.00;;;17.00;99.90;;;;;;6174929;23;20032;-59
2023/06/01 12:41:17;;;;;;;6.72;2.08;;;17.30;99.90;;;;;;6175475;23;20084;-63
2023/06/01 12:43:52;;;;;;;7.10;2.20;;;17.20;99.90;;;;;;6175549;23;20012;-63
2023/06/01 12:46:22;;;;;;;9.52;2.47;;;17.10;99.90;;;;;;6174789;23;20330;-59
2023/06/01 12:48:48;;;;;;;7.65;1.75;;;17.00;99.90;;;;;;6175037;23;20009;-59